sensor_id;sensor_type;location;lat;lon;timestamp;P1;durP1;ratioP1;P2;durP2;ratioP2
60464;SDS011;46314;52.392;9.758;2024-01-06T00:01:11;29.20;;;20.58;;
60464;SDS011;46314;52.392;9.758;2024-01-06T00:03:40;27.15;;;18.63;;
60464;SDS011;46314;52.392;9.758;2024-01-06T00:06:07;31.20;;;19.60;;
60464;SDS011;46314;52.392;9.758;2024-01-06T00:08:33;27.52;;;17.90;;
60464;SDS011;46314;52.392;9.758;2024-01-06T00:11:00;26.88;;;18.63;;
60464;SDS011;46314;52.392;9.758;2024-01-06T00:13:26;29.00;;;18.60;;
60464;SDS011;46314;52.392;9.758;2024-01-06T00:15:53;28.40;;;18.02;;
60464;SDS011;46314;52.392;9.758;2024-01-06T00:18:20;30.38;;;20.33;;
60464;SDS011;46314;52.392;9.758;2024-01-06T00:20:47;28.15;;;18.60;;
60464;SDS011;46314;52.392;9.758;2024-01-06T00:23:14;30.05;;;20.05;;
60464;SDS011;46314;52.392;9.758;2024-01-06T00:25:40;29.33;;;17.88;;
60464;SDS011;46314;52.392;9.758;2024-01-06T00:28:06;28.17;;;19.90;;
60464;SDS011;46314;52.392;9.758;2024-01-06T00:30:33;25.77;;;18.30;;
60464;SDS011;46314;52.392;9.758;2024-01-06T00:32:59;25.05;;;18.63;;
60464;SDS011;46314;52.392;9.758;2024-01-06T00:35:27;25.63;;;17.52;;
60464;SDS011;46314;52.392;9.758;2024-01-06T00:37:54;26.13;;;18.20;;
60464;SDS011;46314;52.392;9.758;2024-01-06T00:40:20;25.80;;;17.15;;
60464;SDS011;46314;52.392;9.758;2024-01-06T00:42:46;26.42;;;18.55;;
60464;SDS011;46314;52.392;9.758;2024-01-06T00:45:13;27.67;;;18.25;;
60464;SDS011;46314;52.392;9.758;2024-01-06T00:47:40;26.25;;;17.50;;
60464;SDS011;46314;52.392;9.758;2024-01-06T00:50:07;24.10;;;17.65;;
60464;SDS011;46314;52.392;9.758;2024-01-06T00:52:35;27.67;;;18.15;;
60464;SDS011;46314;52.392;9.758;2024-01-06T00:55:01;29.20;;;18.52;;
60464;SDS011;46314;52.392;9.758;2024-01-06T00:57:28;27.45;;;17.95;;
60464;SDS011;46314;52.392;9.758;2024-01-06T00:59:54;23.88;;;17.20;;
60464;SDS011;46314;52.392;9.758;2024-01-06T01:02:21;24.80;;;16.95;;
60464;SDS011;46314;52.392;9.758;2024-01-06T01:04:47;26.77;;;16.90;;
60464;SDS011;46314;52.392;9.758;2024-01-06T01:07:14;26.35;;;17.33;;
60464;SDS011;46314;52.392;9.758;2024-01-06T01:09:42;27.35;;;17.35;;
60464;SDS011;46314;52.392;9.758;2024-01-06T01:12:08;24.88;;;17.33;;
60464;SDS011;46314;52.392;9.758;2024-01-06T01:14:35;26.52;;;18.27;;
60464;SDS011;46314;52.392;9.758;2024-01-06T01:17:01;31.85;;;18.88;;
60464;SDS011;46314;52.392;9.758;2024-01-06T01:19:27;30.58;;;18.55;;
60464;SDS011;46314;52.392;9.758;2024-01-06T01:21:54;24.42;;;16.67;;
60464;SDS011;46314;52.392;9.758;2024-01-06T01:24:21;29.00;;;18.10;;
60464;SDS011;46314;52.392;9.758;2024-01-06T01:26:48;29.75;;;17.60;;
60464;SDS011;46314;52.392;9.758;2024-01-06T01:29:15;23.60;;;16.80;;
60464;SDS011;46314;52.392;9.758;2024-01-06T01:31:42;24.67;;;17.42;;
60464;SDS011;46314;52.392;9.758;2024-01-06T01:34:08;25.83;;;15.77;;
60464;SDS011;46314;52.392;9.758;2024-01-06T01:36:35;25.95;;;16.25;;
60464;SDS011;46314;52.392;9.758;2024-01-06T01:39:02;26.77;;;16.40;;
60464;SDS011;46314;52.392;9.758;2024-01-06T01:41:28;26.45;;;17.52;;
60464;SDS011;46314;52.392;9.758;2024-01-06T01:43:56;24.10;;;16.27;;
60464;SDS011;46314;52.392;9.758;2024-01-06T01:46:23;27.15;;;17.38;;
60464;SDS011;46314;52.392;9.758;2024-01-06T01:48:50;33.42;;;18.60;;
60464;SDS011;46314;52.392;9.758;2024-01-06T01:51:17;27.38;;;18.80;;
60464;SDS011;46314;52.392;9.758;2024-01-06T01:53:45;26.40;;;17.08;;
60464;SDS011;46314;52.392;9.758;2024-01-06T01:56:12;27.27;;;18.27;;
60464;SDS011;46314;52.392;9.758;2024-01-06T01:58:38;28.15;;;18.98;;
60464;SDS011;46314;52.392;9.758;2024-01-06T02:01:06;25.15;;;16.35;;
60464;SDS011;46314;52.392;9.758;2024-01-06T02:03:33;25.02;;;16.25;;
60464;SDS011;46314;52.392;9.758;2024-01-06T02:06:01;28.80;;;18.00;;
60464;SDS011;46314;52.392;9.758;2024-01-06T02:08:28;24.70;;;16.08;;
60464;SDS011;46314;52.392;9.758;2024-01-06T02:10:54;25.92;;;16.52;;
60464;SDS011;46314;52.392;9.758;2024-01-06T02:13:22;25.13;;;16.52;;
60464;SDS011;46314;52.392;9.758;2024-01-06T02:15:49;25.48;;;16.85;;
60464;SDS011;46314;52.392;9.758;2024-01-06T02:18:17;27.15;;;17.02;;
60464;SDS011;46314;52.392;9.758;2024-01-06T02:20:44;26.20;;;16.90;;
60464;SDS011;46314;52.392;9.758;2024-01-06T02:23:14;29.10;;;17.85;;
60464;SDS011;46314;52.392;9.758;2024-01-06T02:25:40;30.23;;;18.20;;
60464;SDS011;46314;52.392;9.758;2024-01-06T02:28:07;24.50;;;16.77;;
60464;SDS011;46314;52.392;9.758;2024-01-06T02:30:33;25.95;;;16.67;;
60464;SDS011;46314;52.392;9.758;2024-01-06T02:33:00;25.63;;;16.45;;
60464;SDS011;46314;52.392;9.758;2024-01-06T02:35:27;25.90;;;16.55;;
60464;SDS011;46314;52.392;9.758;2024-01-06T02:37:53;28.85;;;18.45;;
60464;SDS011;46314;52.392;9.758;2024-01-06T02:40:21;30.08;;;18.85;;
60464;SDS011;46314;52.392;9.758;2024-01-06T02:42:47;23.77;;;16.02;;
60464;SDS011;46314;52.392;9.758;2024-01-06T02:45:14;24.90;;;17.25;;
60464;SDS011;46314;52.392;9.758;2024-01-06T02:47:40;27.35;;;16.98;;
60464;SDS011;46314;52.392;9.758;2024-01-06T02:50:07;25.88;;;16.73;;
60464;SDS011;46314;52.392;9.758;2024-01-06T02:52:34;26.45;;;17.10;;
60464;SDS011;46314;52.392;9.758;2024-01-06T02:55:00;23.65;;;15.60;;
60464;SDS011;46314;52.392;9.758;2024-01-06T02:57:29;27.55;;;16.13;;
60464;SDS011;46314;52.392;9.758;2024-01-06T02:59:55;26.10;;;16.33;;
60464;SDS011;46314;52.392;9.758;2024-01-06T03:02:22;23.80;;;16.75;;
60464;SDS011;46314;52.392;9.758;2024-01-06T03:04:48;27.50;;;17.02;;
60464;SDS011;46314;52.392;9.758;2024-01-06T03:07:15;24.88;;;17.02;;
60464;SDS011;46314;52.392;9.758;2024-01-06T03:09:42;25.98;;;17.48;;
60464;SDS011;46314;52.392;9.758;2024-01-06T03:12:08;27.58;;;16.60;;
60464;SDS011;46314;52.392;9.758;2024-01-06T03:14:36;29.88;;;18.05;;
60464;SDS011;46314;52.392;9.758;2024-01-06T03:17:03;26.77;;;17.75;;
60464;SDS011;46314;52.392;9.758;2024-01-06T03:19:30;25.70;;;16.35;;
60464;SDS011;46314;52.392;9.758;2024-01-06T03:21:57;28.60;;;17.73;;
60464;SDS011;46314;52.392;9.758;2024-01-06T03:24:24;31.05;;;18.65;;
60464;SDS011;46314;52.392;9.758;2024-01-06T03:26:52;26.45;;;17.58;;
60464;SDS011;46314;52.392;9.758;2024-01-06T03:29:18;28.20;;;17.00;;
60464;SDS011;46314;52.392;9.758;2024-01-06T03:31:46;28.55;;;17.15;;
60464;SDS011;46314;52.392;9.758;2024-01-06T03:34:12;29.70;;;18.05;;
60464;SDS011;46314;52.392;9.758;2024-01-06T03:36:39;32.47;;;18.58;;
60464;SDS011;46314;52.392;9.758;2024-01-06T03:39:06;27.13;;;16.75;;
60464;SDS011;46314;52.392;9.758;2024-01-06T03:41:33;33.80;;;19.30;;
60464;SDS011;46314;52.392;9.758;2024-01-06T03:44:00;30.42;;;18.10;;
60464;SDS011;46314;52.392;9.758;2024-01-06T03:46:26;33.17;;;18.55;;
60464;SDS011;46314;52.392;9.758;2024-01-06T03:48:54;27.15;;;18.80;;
60464;SDS011;46314;52.392;9.758;2024-01-06T03:51:21;28.17;;;18.17;;
60464;SDS011;46314;52.392;9.758;2024-01-06T03:53:47;30.33;;;19.48;;
60464;SDS011;46314;52.392;9.758;2024-01-06T03:56:14;28.00;;;17.42;;
60464;SDS011;46314;52.392;9.758;2024-01-06T03:58:40;26.95;;;18.10;;
60464;SDS011;46314;52.392;9.758;2024-01-06T04:01:07;28.25;;;17.15;;
60464;SDS011;46314;52.392;9.758;2024-01-06T04:03:33;32.60;;;18.98;;
60464;SDS011;46314;52.392;9.758;2024-01-06T04:06:01;27.73;;;17.95;;
60464;SDS011;46314;52.392;9.758;2024-01-06T04:08:28;31.45;;;18.95;;
60464;SDS011;46314;52.392;9.758;2024-01-06T04:10:55;27.00;;;16.77;;
60464;SDS011;46314;52.392;9.758;2024-01-06T04:13:21;28.55;;;17.90;;
60464;SDS011;46314;52.392;9.758;2024-01-06T04:15:47;33.53;;;20.05;;
60464;SDS011;46314;52.392;9.758;2024-01-06T04:18:14;33.97;;;22.05;;
60464;SDS011;46314;52.392;9.758;2024-01-06T04:20:40;29.67;;;18.20;;
60464;SDS011;46314;52.392;9.758;2024-01-06T04:23:08;33.90;;;19.95;;
60464;SDS011;46314;52.392;9.758;2024-01-06T04:25:35;28.85;;;19.90;;
60464;SDS011;46314;52.392;9.758;2024-01-06T04:28:01;31.08;;;18.27;;
60464;SDS011;46314;52.392;9.758;2024-01-06T04:30:28;29.85;;;19.33;;
60464;SDS011;46314;52.392;9.758;2024-01-06T04:32:55;31.40;;;19.05;;
60464;SDS011;46314;52.392;9.758;2024-01-06T04:35:21;32.33;;;19.92;;
60464;SDS011;46314;52.392;9.758;2024-01-06T04:37:48;34.58;;;20.00;;
60464;SDS011;46314;52.392;9.758;2024-01-06T04:40:15;30.55;;;18.75;;
60464;SDS011;46314;52.392;9.758;2024-01-06T04:42:42;28.63;;;19.52;;
60464;SDS011;46314;52.392;9.758;2024-01-06T04:45:09;29.08;;;18.17;;
60464;SDS011;46314;52.392;9.758;2024-01-06T04:47:36;30.60;;;18.95;;
60464;SDS011;46314;52.392;9.758;2024-01-06T04:50:02;33.22;;;19.80;;
60464;SDS011;46314;52.392;9.758;2024-01-06T04:52:29;28.70;;;17.95;;
60464;SDS011;46314;52.392;9.758;2024-01-06T04:54:57;28.70;;;18.45;;
60464;SDS011;46314;52.392;9.758;2024-01-06T04:57:24;29.00;;;18.25;;
60464;SDS011;46314;52.392;9.758;2024-01-06T04:59:51;31.17;;;19.40;;
60464;SDS011;46314;52.392;9.758;2024-01-06T05:02:17;29.95;;;17.42;;
60464;SDS011;46314;52.392;9.758;2024-01-06T05:04:44;35.20;;;18.80;;
60464;SDS011;46314;52.392;9.758;2024-01-06T05:07:10;31.23;;;19.23;;
60464;SDS011;46314;52.392;9.758;2024-01-06T05:09:37;32.38;;;19.23;;
60464;SDS011;46314;52.392;9.758;2024-01-06T05:12:04;32.47;;;19.70;;
60464;SDS011;46314;52.392;9.758;2024-01-06T05:14:32;33.10;;;19.88;;
60464;SDS011;46314;52.392;9.758;2024-01-06T05:16:58;28.88;;;18.13;;
60464;SDS011;46314;52.392;9.758;2024-01-06T05:19:25;33.47;;;20.08;;
60464;SDS011;46314;52.392;9.758;2024-01-06T05:21:52;30.67;;;17.77;;
60464;SDS011;46314;52.392;9.758;2024-01-06T05:24:19;28.35;;;17.98;;
60464;SDS011;46314;52.392;9.758;2024-01-06T05:26:46;31.50;;;18.45;;
60464;SDS011;46314;52.392;9.758;2024-01-06T05:29:12;30.95;;;18.17;;
60464;SDS011;46314;52.392;9.758;2024-01-06T05:31:40;31.30;;;18.90;;
60464;SDS011;46314;52.392;9.758;2024-01-06T05:34:07;33.15;;;20.63;;
60464;SDS011;46314;52.392;9.758;2024-01-06T05:36:34;30.65;;;18.70;;
60464;SDS011;46314;52.392;9.758;2024-01-06T05:39:00;31.02;;;18.20;;
60464;SDS011;46314;52.392;9.758;2024-01-06T05:41:27;29.17;;;18.42;;
60464;SDS011;46314;52.392;9.758;2024-01-06T05:43:53;32.70;;;20.45;;
60464;SDS011;46314;52.392;9.758;2024-01-06T05:46:20;34.15;;;20.35;;
60464;SDS011;46314;52.392;9.758;2024-01-06T05:48:48;41.28;;;22.63;;
60464;SDS011;46314;52.392;9.758;2024-01-06T05:51:15;33.42;;;19.30;;
60464;SDS011;46314;52.392;9.758;2024-01-06T05:53:42;30.90;;;19.63;;
60464;SDS011;46314;52.392;9.758;2024-01-06T05:56:08;36.08;;;19.33;;
60464;SDS011;46314;52.392;9.758;2024-01-06T05:58:34;34.58;;;19.85;;
60464;SDS011;46314;52.392;9.758;2024-01-06T06:01:01;35.75;;;20.05;;
60464;SDS011;46314;52.392;9.758;2024-01-06T06:03:28;31.55;;;18.73;;
60464;SDS011;46314;52.392;9.758;2024-01-06T06:05:56;36.58;;;20.27;;
60464;SDS011;46314;52.392;9.758;2024-01-06T06:08:22;34.85;;;18.83;;
60464;SDS011;46314;52.392;9.758;2024-01-06T06:10:49;36.55;;;19.52;;
60464;SDS011;46314;52.392;9.758;2024-01-06T06:13:15;36.88;;;20.95;;
60464;SDS011;46314;52.392;9.758;2024-01-06T06:15:41;37.65;;;20.35;;
60464;SDS011;46314;52.392;9.758;2024-01-06T06:18:08;39.53;;;20.83;;
60464;SDS011;46314;52.392;9.758;2024-01-06T06:20:35;35.38;;;19.77;;
60464;SDS011;46314;52.392;9.758;2024-01-06T06:23:02;37.55;;;22.50;;
60464;SDS011;46314;52.392;9.758;2024-01-06T06:25:29;40.35;;;22.90;;
60464;SDS011;46314;52.392;9.758;2024-01-06T06:27:56;35.83;;;21.67;;
60464;SDS011;46314;52.392;9.758;2024-01-06T06:30:22;38.67;;;22.02;;
60464;SDS011;46314;52.392;9.758;2024-01-06T06:32:50;39.35;;;22.42;;
60464;SDS011;46314;52.392;9.758;2024-01-06T06:35:17;36.50;;;20.90;;
60464;SDS011;46314;52.392;9.758;2024-01-06T06:37:43;42.88;;;21.80;;
60464;SDS011;46314;52.392;9.758;2024-01-06T06:40:11;38.50;;;22.10;;
60464;SDS011;46314;52.392;9.758;2024-01-06T06:42:38;37.25;;;21.45;;
60464;SDS011;46314;52.392;9.758;2024-01-06T06:45:05;37.90;;;21.30;;
60464;SDS011;46314;52.392;9.758;2024-01-06T06:47:32;41.75;;;22.15;;
60464;SDS011;46314;52.392;9.758;2024-01-06T06:49:58;39.42;;;22.25;;
60464;SDS011;46314;52.392;9.758;2024-01-06T06:52:25;37.83;;;22.88;;
60464;SDS011;46314;52.392;9.758;2024-01-06T06:54:51;44.15;;;23.08;;
60464;SDS011;46314;52.392;9.758;2024-01-06T06:57:19;37.70;;;20.52;;
60464;SDS011;46314;52.392;9.758;2024-01-06T06:59:46;42.00;;;22.83;;
60464;SDS011;46314;52.392;9.758;2024-01-06T07:02:12;37.90;;;22.08;;
60464;SDS011;46314;52.392;9.758;2024-01-06T07:04:39;42.63;;;22.48;;
60464;SDS011;46314;52.392;9.758;2024-01-06T07:07:06;40.53;;;21.88;;
60464;SDS011;46314;52.392;9.758;2024-01-06T07:09:32;45.35;;;22.80;;
60464;SDS011;46314;52.392;9.758;2024-01-06T07:11:59;35.65;;;20.15;;
60464;SDS011;46314;52.392;9.758;2024-01-06T07:14:26;41.92;;;22.45;;
60464;SDS011;46314;52.392;9.758;2024-01-06T07:16:53;39.85;;;22.00;;
60464;SDS011;46314;52.392;9.758;2024-01-06T07:19:19;42.53;;;22.98;;
60464;SDS011;46314;52.392;9.758;2024-01-06T07:21:46;42.15;;;22.65;;
60464;SDS011;46314;52.392;9.758;2024-01-06T07:24:12;44.97;;;22.50;;
60464;SDS011;46314;52.392;9.758;2024-01-06T07:26:39;41.72;;;22.08;;
60464;SDS011;46314;52.392;9.758;2024-01-06T07:29:05;39.20;;;22.02;;
60464;SDS011;46314;52.392;9.758;2024-01-06T07:31:33;47.83;;;25.40;;
60464;SDS011;46314;52.392;9.758;2024-01-06T07:34:00;43.95;;;23.65;;
60464;SDS011;46314;52.392;9.758;2024-01-06T07:36:26;46.28;;;23.77;;
60464;SDS011;46314;52.392;9.758;2024-01-06T07:38:53;49.63;;;26.63;;
60464;SDS011;46314;52.392;9.758;2024-01-06T07:41:19;47.15;;;24.13;;
60464;SDS011;46314;52.392;9.758;2024-01-06T07:43:46;47.58;;;23.92;;
60464;SDS011;46314;52.392;9.758;2024-01-06T07:46:12;45.42;;;23.40;;
60464;SDS011;46314;52.392;9.758;2024-01-06T07:48:41;46.28;;;23.52;;
60464;SDS011;46314;52.392;9.758;2024-01-06T07:51:07;50.00;;;25.13;;
60464;SDS011;46314;52.392;9.758;2024-01-06T07:53:34;51.78;;;26.75;;
60464;SDS011;46314;52.392;9.758;2024-01-06T07:56:00;49.53;;;25.65;;
60464;SDS011;46314;52.392;9.758;2024-01-06T07:58:27;49.60;;;24.60;;
60464;SDS011;46314;52.392;9.758;2024-01-06T08:00:53;49.13;;;24.13;;
60464;SDS011;46314;52.392;9.758;2024-01-06T08:03:20;45.72;;;24.05;;
60464;SDS011;46314;52.392;9.758;2024-01-06T08:05:47;46.20;;;22.17;;
60464;SDS011;46314;52.392;9.758;2024-01-06T08:08:14;41.10;;;23.02;;
60464;SDS011;46314;52.392;9.758;2024-01-06T08:10:40;45.13;;;23.48;;
60464;SDS011;46314;52.392;9.758;2024-01-06T08:13:07;42.35;;;20.85;;
60464;SDS011;46314;52.392;9.758;2024-01-06T08:15:33;45.08;;;23.27;;
60464;SDS011;46314;52.392;9.758;2024-01-06T08:18:00;43.97;;;23.20;;
60464;SDS011;46314;52.392;9.758;2024-01-06T08:20:26;46.67;;;23.92;;
60464;SDS011;46314;52.392;9.758;2024-01-06T08:22:54;47.92;;;23.10;;
60464;SDS011;46314;52.392;9.758;2024-01-06T08:25:21;45.83;;;22.63;;
60464;SDS011;46314;52.392;9.758;2024-01-06T08:27:47;51.75;;;22.17;;
60464;SDS011;46314;52.392;9.758;2024-01-06T08:30:14;47.72;;;25.90;;
60464;SDS011;46314;52.392;9.758;2024-01-06T08:32:40;44.38;;;21.08;;
60464;SDS011;46314;52.392;9.758;2024-01-06T08:35:07;38.10;;;20.80;;
60464;SDS011;46314;52.392;9.758;2024-01-06T08:37:34;36.72;;;19.98;;
60464;SDS011;46314;52.392;9.758;2024-01-06T08:40:02;39.42;;;21.02;;
60464;SDS011;46314;52.392;9.758;2024-01-06T08:42:30;34.58;;;20.33;;
60464;SDS011;46314;52.392;9.758;2024-01-06T08:45:03;32.58;;;18.83;;
60464;SDS011;46314;52.392;9.758;2024-01-06T08:47:30;35.80;;;19.00;;
60464;SDS011;46314;52.392;9.758;2024-01-06T08:49:57;36.00;;;19.85;;
60464;SDS011;46314;52.392;9.758;2024-01-06T08:52:23;38.80;;;20.05;;
60464;SDS011;46314;52.392;9.758;2024-01-06T08:54:50;35.28;;;18.83;;
60464;SDS011;46314;52.392;9.758;2024-01-06T08:57:18;39.45;;;20.75;;
60464;SDS011;46314;52.392;9.758;2024-01-06T08:59:44;37.67;;;18.75;;
60464;SDS011;46314;52.392;9.758;2024-01-06T09:02:11;39.90;;;20.42;;
60464;SDS011;46314;52.392;9.758;2024-01-06T09:04:38;32.10;;;17.52;;
60464;SDS011;46314;52.392;9.758;2024-01-06T09:07:04;31.63;;;17.65;;
60464;SDS011;46314;52.392;9.758;2024-01-06T09:09:31;33.40;;;19.10;;
60464;SDS011;46314;52.392;9.758;2024-01-06T09:11:57;29.50;;;17.23;;
60464;SDS011;46314;52.392;9.758;2024-01-06T09:14:25;30.13;;;17.52;;
60464;SDS011;46314;52.392;9.758;2024-01-06T09:16:52;31.27;;;19.48;;
60464;SDS011;46314;52.392;9.758;2024-01-06T09:19:18;30.50;;;17.98;;
60464;SDS011;46314;52.392;9.758;2024-01-06T09:21:45;32.50;;;18.42;;
60464;SDS011;46314;52.392;9.758;2024-01-06T09:24:12;32.53;;;17.95;;
60464;SDS011;46314;52.392;9.758;2024-01-06T09:26:38;29.77;;;16.95;;
60464;SDS011;46314;52.392;9.758;2024-01-06T09:29:05;30.38;;;17.80;;
60464;SDS011;46314;52.392;9.758;2024-01-06T09:31:33;30.05;;;17.02;;
60464;SDS011;46314;52.392;9.758;2024-01-06T09:34:00;31.83;;;18.00;;
60464;SDS011;46314;52.392;9.758;2024-01-06T09:36:26;28.00;;;16.15;;
60464;SDS011;46314;52.392;9.758;2024-01-06T09:38:53;29.52;;;16.25;;
60464;SDS011;46314;52.392;9.758;2024-01-06T09:41:19;29.75;;;17.08;;
60464;SDS011;46314;52.392;9.758;2024-01-06T09:43:46;27.92;;;16.95;;
60464;SDS011;46314;52.392;9.758;2024-01-06T09:46:14;25.88;;;15.60;;
60464;SDS011;46314;52.392;9.758;2024-01-06T09:48:45;27.38;;;16.10;;
60464;SDS011;46314;52.392;9.758;2024-01-06T09:51:12;29.63;;;17.10;;
60464;SDS011;46314;52.392;9.758;2024-01-06T09:53:42;30.15;;;17.88;;
60464;SDS011;46314;52.392;9.758;2024-01-06T09:56:14;26.67;;;16.38;;
60464;SDS011;46314;52.392;9.758;2024-01-06T09:58:41;24.80;;;15.27;;
60464;SDS011;46314;52.392;9.758;2024-01-06T10:01:08;25.52;;;16.13;;
60464;SDS011;46314;52.392;9.758;2024-01-06T10:03:35;25.83;;;15.90;;
60464;SDS011;46314;52.392;9.758;2024-01-06T10:06:04;29.33;;;16.63;;
60464;SDS011;46314;52.392;9.758;2024-01-06T10:08:31;26.05;;;15.15;;
60464;SDS011;46314;52.392;9.758;2024-01-06T10:10:57;27.35;;;16.48;;
60464;SDS011;46314;52.392;9.758;2024-01-06T10:13:25;28.35;;;15.68;;
60464;SDS011;46314;52.392;9.758;2024-01-06T10:15:51;27.60;;;15.93;;
60464;SDS011;46314;52.392;9.758;2024-01-06T10:18:18;24.00;;;14.52;;
60464;SDS011;46314;52.392;9.758;2024-01-06T10:20:45;22.13;;;13.77;;
60464;SDS011;46314;52.392;9.758;2024-01-06T10:23:12;20.58;;;13.77;;
60464;SDS011;46314;52.392;9.758;2024-01-06T10:25:39;21.92;;;14.52;;
60464;SDS011;46314;52.392;9.758;2024-01-06T10:28:06;23.58;;;14.23;;
60464;SDS011;46314;52.392;9.758;2024-01-06T10:30:32;20.48;;;12.18;;
60464;SDS011;46314;52.392;9.758;2024-01-06T10:32:59;23.83;;;14.00;;
60464;SDS011;46314;52.392;9.758;2024-01-06T10:35:25;22.45;;;14.35;;
60464;SDS011;46314;52.392;9.758;2024-01-06T10:37:52;24.27;;;15.50;;
60464;SDS011;46314;52.392;9.758;2024-01-06T10:40:20;22.23;;;14.20;;
60464;SDS011;46314;52.392;9.758;2024-01-06T10:42:47;24.15;;;14.90;;
60464;SDS011;46314;52.392;9.758;2024-01-06T10:45:13;23.23;;;15.52;;
60464;SDS011;46314;52.392;9.758;2024-01-06T10:47:41;22.23;;;14.30;;
60464;SDS011;46314;52.392;9.758;2024-01-06T10:50:09;27.15;;;14.85;;
60464;SDS011;46314;52.392;9.758;2024-01-06T10:52:37;26.55;;;14.88;;
60464;SDS011;46314;52.392;9.758;2024-01-06T10:55:04;27.90;;;14.90;;
60464;SDS011;46314;52.392;9.758;2024-01-06T10:57:33;23.88;;;14.48;;
60464;SDS011;46314;52.392;9.758;2024-01-06T11:00:00;24.75;;;14.88;;
60464;SDS011;46314;52.392;9.758;2024-01-06T11:02:27;25.85;;;15.75;;
60464;SDS011;46314;52.392;9.758;2024-01-06T11:04:54;27.83;;;16.75;;
60464;SDS011;46314;52.392;9.758;2024-01-06T11:07:21;26.92;;;16.38;;
60464;SDS011;46314;52.392;9.758;2024-01-06T11:09:50;28.45;;;16.13;;
60464;SDS011;46314;52.392;9.758;2024-01-06T11:12:22;29.20;;;17.13;;
60464;SDS011;46314;52.392;9.758;2024-01-06T11:14:53;27.70;;;16.17;;
60464;SDS011;46314;52.392;9.758;2024-01-06T11:20:17;28.30;;;16.13;;
60464;SDS011;46314;52.392;9.758;2024-01-06T11:22:44;25.48;;;16.63;;
60464;SDS011;46314;52.392;9.758;2024-01-06T11:25:12;27.40;;;16.67;;
60464;SDS011;46314;52.392;9.758;2024-01-06T11:27:40;28.88;;;16.40;;
60464;SDS011;46314;52.392;9.758;2024-01-06T11:30:18;29.00;;;16.90;;
60464;SDS011;46314;52.392;9.758;2024-01-06T11:32:47;29.17;;;16.90;;
60464;SDS011;46314;52.392;9.758;2024-01-06T11:35:14;28.92;;;17.27;;
60464;SDS011;46314;52.392;9.758;2024-01-06T11:37:51;25.63;;;17.42;;
60464;SDS011;46314;52.392;9.758;2024-01-06T11:40:22;24.60;;;15.95;;
60464;SDS011;46314;52.392;9.758;2024-01-06T11:42:56;30.05;;;17.85;;
60464;SDS011;46314;52.392;9.758;2024-01-06T11:45:26;30.77;;;15.43;;
60464;SDS011;46314;52.392;9.758;2024-01-06T11:47:54;27.88;;;16.50;;
60464;SDS011;46314;52.392;9.758;2024-01-06T11:50:23;28.35;;;18.15;;
60464;SDS011;46314;52.392;9.758;2024-01-06T11:52:50;29.73;;;17.67;;
60464;SDS011;46314;52.392;9.758;2024-01-06T11:55:17;27.08;;;16.42;;
60464;SDS011;46314;52.392;9.758;2024-01-06T11:57:44;26.67;;;16.85;;
60464;SDS011;46314;52.392;9.758;2024-01-06T12:00:11;33.67;;;18.08;;
60464;SDS011;46314;52.392;9.758;2024-01-06T12:02:39;28.15;;;16.70;;
60464;SDS011;46314;52.392;9.758;2024-01-06T12:05:11;31.48;;;18.63;;
60464;SDS011;46314;52.392;9.758;2024-01-06T12:07:39;30.10;;;18.13;;
60464;SDS011;46314;52.392;9.758;2024-01-06T12:10:06;28.77;;;16.67;;
60464;SDS011;46314;52.392;9.758;2024-01-06T12:12:33;28.33;;;17.88;;
60464;SDS011;46314;52.392;9.758;2024-01-06T12:15:00;30.17;;;17.63;;
60464;SDS011;46314;52.392;9.758;2024-01-06T12:17:27;25.00;;;15.80;;
60464;SDS011;46314;52.392;9.758;2024-01-06T12:19:56;29.27;;;16.40;;
60464;SDS011;46314;52.392;9.758;2024-01-06T12:22:23;30.55;;;16.70;;
60464;SDS011;46314;52.392;9.758;2024-01-06T12:24:50;30.10;;;16.17;;
60464;SDS011;46314;52.392;9.758;2024-01-06T12:27:17;27.83;;;17.13;;
60464;SDS011;46314;52.392;9.758;2024-01-06T12:29:44;31.02;;;17.00;;
60464;SDS011;46314;52.392;9.758;2024-01-06T12:32:10;29.35;;;16.98;;
60464;SDS011;46314;52.392;9.758;2024-01-06T12:34:37;31.70;;;18.95;;
60464;SDS011;46314;52.392;9.758;2024-01-06T12:37:05;33.80;;;20.02;;
60464;SDS011;46314;52.392;9.758;2024-01-06T12:39:31;32.80;;;17.02;;
60464;SDS011;46314;52.392;9.758;2024-01-06T12:41:58;29.83;;;17.13;;
60464;SDS011;46314;52.392;9.758;2024-01-06T12:44:24;30.58;;;18.10;;
60464;SDS011;46314;52.392;9.758;2024-01-06T12:46:51;30.50;;;17.63;;
60464;SDS011;46314;52.392;9.758;2024-01-06T12:49:17;31.77;;;18.45;;
60464;SDS011;46314;52.392;9.758;2024-01-06T12:51:44;32.15;;;17.73;;
60464;SDS011;46314;52.392;9.758;2024-01-06T12:54:12;34.20;;;17.58;;
60464;SDS011;46314;52.392;9.758;2024-01-06T12:56:38;31.92;;;17.15;;
60464;SDS011;46314;52.392;9.758;2024-01-06T12:59:06;33.03;;;16.52;;
60464;SDS011;46314;52.392;9.758;2024-01-06T13:01:32;30.60;;;17.63;;
60464;SDS011;46314;52.392;9.758;2024-01-06T13:03:59;34.30;;;18.92;;
60464;SDS011;46314;52.392;9.758;2024-01-06T13:06:26;33.72;;;18.48;;
60464;SDS011;46314;52.392;9.758;2024-01-06T13:08:52;31.75;;;17.70;;
60464;SDS011;46314;52.392;9.758;2024-01-06T13:11:20;27.98;;;16.60;;
60464;SDS011;46314;52.392;9.758;2024-01-06T13:13:47;27.55;;;16.27;;
60464;SDS011;46314;52.392;9.758;2024-01-06T13:16:13;33.17;;;18.02;;
60464;SDS011;46314;52.392;9.758;2024-01-06T13:18:40;28.88;;;18.08;;
60464;SDS011;46314;52.392;9.758;2024-01-06T13:21:06;32.35;;;19.00;;
60464;SDS011;46314;52.392;9.758;2024-01-06T13:23:33;32.10;;;17.92;;
60464;SDS011;46314;52.392;9.758;2024-01-06T13:25:59;32.60;;;18.75;;
60464;SDS011;46314;52.392;9.758;2024-01-06T13:28:27;41.42;;;19.10;;
60464;SDS011;46314;52.392;9.758;2024-01-06T13:30:54;41.03;;;17.33;;
60464;SDS011;46314;52.392;9.758;2024-01-06T13:33:20;34.25;;;19.02;;
60464;SDS011;46314;52.392;9.758;2024-01-06T13:35:47;30.35;;;18.98;;
60464;SDS011;46314;52.392;9.758;2024-01-06T13:38:13;33.30;;;19.25;;
60464;SDS011;46314;52.392;9.758;2024-01-06T13:40:40;33.65;;;18.65;;
60464;SDS011;46314;52.392;9.758;2024-01-06T13:43:06;31.17;;;18.08;;
60464;SDS011;46314;52.392;9.758;2024-01-06T13:45:34;33.40;;;17.13;;
60464;SDS011;46314;52.392;9.758;2024-01-06T13:48:01;32.38;;;18.60;;
60464;SDS011;46314;52.392;9.758;2024-01-06T13:50:30;30.65;;;18.02;;
60464;SDS011;46314;52.392;9.758;2024-01-06T13:52:56;36.63;;;18.92;;
60464;SDS011;46314;52.392;9.758;2024-01-06T13:55:22;34.20;;;17.70;;
60464;SDS011;46314;52.392;9.758;2024-01-06T13:57:49;29.25;;;17.50;;
60464;SDS011;46314;52.392;9.758;2024-01-06T14:00:16;33.00;;;18.00;;
60464;SDS011;46314;52.392;9.758;2024-01-06T14:02:47;33.83;;;17.38;;
60464;SDS011;46314;52.392;9.758;2024-01-06T14:05:14;31.42;;;17.30;;
60464;SDS011;46314;52.392;9.758;2024-01-06T14:07:41;35.53;;;19.50;;
60464;SDS011;46314;52.392;9.758;2024-01-06T14:10:07;31.33;;;18.83;;
60464;SDS011;46314;52.392;9.758;2024-01-06T14:12:34;32.22;;;17.65;;
60464;SDS011;46314;52.392;9.758;2024-01-06T14:15:01;28.65;;;16.38;;
60464;SDS011;46314;52.392;9.758;2024-01-06T14:17:28;27.30;;;16.92;;
60464;SDS011;46314;52.392;9.758;2024-01-06T14:19:56;28.08;;;16.17;;
60464;SDS011;46314;52.392;9.758;2024-01-06T14:22:22;31.45;;;15.68;;